Time;durP1;ratioP1;P1;durP2;ratioP2;P2;SDS_P1;SDS_P2;PMS_P1;PMS_P2;Temp;Humidity;BMP_temperature;BMP_pressure;BME280_temperature;BME280_humidity;BME280_pressure;Samples;Min_cycle;Max_cycle;Signal;HPM_P1;HPM_P2
2024/02/18 00:01:45;;;;;;;8.73;4.77;;;6.10;99.90;;;6.74;100.00;99766.91;4981607;28;20534;-74
2024/02/18 00:04:14;;;;;;;13.53;5.67;;;6.00;99.90;;;6.80;100.00;99771.66;4983613;28;20928;-74
2024/02/18 00:06:42;;;;;;;9.80;4.80;;;6.00;99.90;;;6.73;100.00;99773.06;4982440;28;20444;-74
2024/02/18 00:09:11;;;;;;;10.50;4.93;;;6.00;99.90;;;6.62;100.00;99773.91;4982124;28;21027;-74
2024/02/18 00:11:41;;;;;;;10.77;5.53;;;5.90;99.90;;;6.58;100.00;99773.31;4981942;28;20491;-74
2024/02/18 00:14:09;;;;;;;11.57;5.80;;;5.90;99.90;;;6.57;100.00;99766.47;4981670;28;20467;-74
2024/02/18 00:16:38;;;;;;;12.13;5.77;;;5.90;99.90;;;6.65;100.00;99767.63;4980843;28;20697;-75
2024/02/18 00:19:07;;;;;;;11.13;5.80;;;5.90;99.90;;;6.64;100.00;99755.56;4982049;28;20463;-74
2024/02/18 00:21:37;;;;;;;13.37;6.03;;;5.90;99.90;;;6.71;100.00;99756.75;4981730;28;21170;-74
2024/02/18 00:24:07;;;;;;;12.10;5.03;;;5.90;99.90;;;6.82;100.00;99748.94;4982057;28;20525;-74
2024/02/18 00:26:38;;;;;;;9.43;5.00;;;6.00;99.90;;;6.67;100.00;99747.53;4982193;28;20923;-73
2024/02/18 00:29:26;;;;;;;9.53;5.07;;;5.90;99.90;;;6.48;100.00;99751.59;4981812;28;20460;-74
2024/02/18 00:31:55;;;;;;;7.20;4.97;;;5.70;99.90;;;6.46;100.00;99756.06;4979860;28;20984;-74
2024/02/18 00:34:23;;;;;;;10.50;4.83;;;5.70;99.90;;;6.47;100.00;99747.31;4981411;28;20874;-74
2024/02/18 00:36:53;;;;;;;6.37;4.13;;;5.70;99.90;;;6.48;100.00;99746.41;4981797;28;20465;-74
2024/02/18 00:39:21;;;;;;;6.70;4.50;;;5.70;99.90;;;6.55;100.00;99738.94;4982323;28;20564;-74
2024/02/18 00:41:50;;;;;;;11.23;4.80;;;5.90;99.90;;;6.58;100.00;99742.13;4981144;28;20468;-73
2024/02/18 00:44:23;;;;;;;8.10;4.23;;;5.80;99.90;;;6.54;100.00;99756.31;4980895;28;20468;-74
2024/02/18 00:46:53;;;;;;;21.43;4.77;;;5.80;99.90;;;6.62;100.00;99739.28;4982088;28;20467;-74
2024/02/18 00:49:33;;;;;;;9.00;3.67;;;5.80;99.90;;;6.62;100.00;99736.69;4982065;28;20930;-74
2024/02/18 00:52:03;;;;;;;9.20;5.10;;;5.80;99.90;;;6.46;100.00;99735.28;4980748;28;20496;-74
2024/02/18 00:54:32;;;;;;;8.17;4.57;;;5.70;99.90;;;6.53;100.00;99739.06;4981969;28;20474;-74
2024/02/18 00:57:01;;;;;;;10.63;4.50;;;5.80;99.90;;;6.53;100.00;99733.84;4981755;28;20470;-74
2024/02/18 00:59:29;;;;;;;6.23;3.87;;;5.80;99.90;;;6.46;100.00;99737.88;4981547;28;20455;-74
2024/02/18 01:01:59;;;;;;;5.30;3.70;;;5.70;99.90;;;6.48;100.00;99736.00;4980917;28;21034;-74
2024/02/18 01:04:27;;;;;;;5.67;4.20;;;5.70;99.90;;;6.49;100.00;99744.63;4980594;28;20558;-74
2024/02/18 01:06:56;;;;;;;5.43;3.87;;;5.70;99.90;;;6.45;100.00;99740.59;4983768;28;20459;-74
2024/02/18 01:09:25;;;;;;;6.07;3.73;;;5.70;99.90;;;6.42;100.00;99749.44;4981923;28;21006;-74
2024/02/18 01:11:53;;;;;;;8.80;3.50;;;5.60;99.90;;;6.44;100.00;99749.34;4980440;28;20578;-74
2024/02/18 01:14:22;;;;;;;11.00;4.27;;;5.70;99.90;;;6.38;100.00;99752.41;4978894;28;20514;-74
2024/02/18 01:16:50;;;;;;;6.23;3.73;;;5.60;99.90;;;6.38;100.00;99740.25;4980225;28;20466;-74
2024/02/18 01:19:21;;;;;;;5.40;4.00;;;5.60;99.90;;;6.37;100.00;99745.56;4981414;28;21075;-74
2024/02/18 01:21:50;;;;;;;10.80;4.73;;;5.60;99.90;;;6.22;100.00;99750.16;4979223;28;20975;-74
2024/02/18 01:24:18;;;;;;;7.53;4.13;;;5.40;99.90;;;6.24;100.00;99747.44;4980393;28;20463;-75
2024/02/18 01:26:47;;;;;;;6.73;3.93;;;5.50;99.90;;;6.36;100.00;99742.13;4980031;28;20497;-75
2024/02/18 01:29:15;;;;;;;4.23;3.70;;;5.60;99.90;;;6.49;100.00;99748.03;4979628;28;20468;-73
2024/02/18 01:31:44;;;;;;;5.10;3.30;;;5.70;99.90;;;6.63;100.00;99749.53;4978830;28;20540;-74
2024/02/18 01:34:12;;;;;;;6.73;3.80;;;5.90;99.90;;;6.63;100.00;99756.53;4981455;28;20477;-74
2024/02/18 01:36:42;;;;;;;5.07;3.47;;;5.90;99.90;;;6.47;100.00;99759.50;4980634;28;20491;-74
2024/02/18 01:39:11;;;;;;;8.00;4.10;;;5.70;99.90;;;6.56;100.00;99749.19;4980759;28;20476;-74
2024/02/18 01:41:40;;;;;;;9.03;4.07;;;5.80;99.90;;;6.54;100.00;99758.91;4980068;28;20516;-74
2024/02/18 01:44:08;;;;;;;7.30;4.07;;;5.80;99.90;;;6.58;100.00;99756.88;4980036;28;20472;-74
2024/02/18 01:46:37;;;;;;;13.90;4.20;;;5.80;99.90;;;6.63;100.00;99753.94;4979476;28;20464;-74
2024/02/18 01:49:06;;;;;;;6.80;4.37;;;5.90;99.90;;;6.73;100.00;99752.28;4980932;28;20551;-74
2024/02/18 01:51:35;;;;;;;10.13;4.20;;;6.00;99.90;;;6.77;100.00;99756.28;4980594;28;20501;-72
2024/02/18 01:54:07;;;;;;;17.13;4.90;;;6.00;99.90;;;6.51;100.00;99748.75;4981062;28;20466;-74
2024/02/18 01:56:36;;;;;;;10.17;3.90;;;5.80;99.90;;;6.59;100.00;99745.56;4981205;28;20478;-74
2024/02/18 01:59:04;;;;;;;18.20;5.33;;;5.90;99.90;;;6.64;100.00;99743.41;4981004;28;20466;-74
2024/02/18 02:01:34;;;;;;;9.70;3.87;;;5.90;99.90;;;6.66;100.00;99743.31;4979981;28;20835;-74
2024/02/18 02:04:03;;;;;;;14.57;3.50;;;5.90;99.90;;;6.66;100.00;99740.72;4980547;28;20468;-74
2024/02/18 02:06:32;;;;;;;14.40;4.40;;;5.90;99.90;;;6.66;100.00;99732.91;4979879;28;20899;-74
2024/02/18 02:09:02;;;;;;;27.47;4.60;;;5.90;99.90;;;6.59;100.00;99725.56;4980222;28;20804;-74
2024/02/18 02:11:32;;;;;;;12.80;3.93;;;5.80;99.90;;;6.65;100.00;99726.03;4980359;28;20503;-74
2024/02/18 02:14:02;;;;;;;6.07;4.03;;;5.90;99.90;;;6.62;100.00;99724.53;4980485;28;20471;-74
2024/02/18 02:16:30;;;;;;;27.13;4.53;;;5.90;99.90;;;6.58;100.00;99716.13;4980120;28;20985;-74
2024/02/18 02:18:59;;;;;;;30.97;5.63;;;5.80;99.90;;;6.56;100.00;99720.63;4979894;28;20468;-74
2024/02/18 02:21:28;;;;;;;42.57;4.53;;;5.80;99.90;;;6.40;100.00;99725.38;4979491;28;20468;-74
2024/02/18 02:23:56;;;;;;;19.27;3.67;;;5.60;99.90;;;6.18;100.00;99719.38;4979933;28;20466;-74
2024/02/18 02:26:32;;;;;;;5.73;3.57;;;5.40;99.90;;;6.13;100.00;99727.50;4979953;28;20991;-74
2024/02/18 02:29:15;;;;;;;10.50;3.33;;;5.30;99.90;;;6.18;100.00;99722.75;4979384;28;21076;-74
2024/02/18 02:31:45;;;;;;;4.83;3.90;;;5.40;99.90;;;6.10;100.00;99724.31;4979451;28;20499;-74
2024/02/18 02:34:15;;;;;;;4.07;3.07;;;5.40;99.90;;;6.02;100.00;99732.69;4980222;28;20476;-74
2024/02/18 02:36:44;;;;;;;6.87;3.90;;;5.40;99.90;;;6.04;100.00;99731.59;4980329;28;20510;-74
2024/02/18 02:39:12;;;;;;;5.50;3.10;;;5.40;99.90;;;6.04;100.00;99726.41;4979358;28;20474;-74
2024/02/18 02:41:41;;;;;;;4.47;3.20;;;5.40;99.90;;;6.11;100.00;99726.78;4979999;28;20807;-74
2024/02/18 02:44:11;;;;;;;4.00;2.90;;;5.40;99.90;;;6.14;100.00;99721.38;4980233;28;20487;-74
2024/02/18 02:46:40;;;;;;;6.47;3.03;;;5.40;99.90;;;6.17;100.00;99721.13;4979189;28;20456;-74
2024/02/18 02:49:08;;;;;;;3.23;2.93;;;5.50;99.90;;;6.16;100.00;99714.28;4979795;28;20472;-74
2024/02/18 02:51:37;;;;;;;4.10;2.93;;;5.40;99.90;;;6.11;100.00;99706.00;4980068;28;20471;-73
2024/02/18 02:54:06;;;;;;;6.30;3.40;;;5.40;99.90;;;6.06;100.00;99708.13;4980464;28;20472;-74
2024/02/18 02:56:34;;;;;;;4.10;2.80;;;5.30;99.90;;;6.07;100.00;99712.38;4981604;28;20472;-74
2024/02/18 02:59:03;;;;;;;3.83;2.73;;;5.30;99.90;;;5.94;100.00;99709.06;4983744;28;20468;-74
2024/02/18 03:01:33;;;;;;;3.43;2.70;;;5.10;99.90;;;6.03;100.00;99708.38;4983098;28;20679;-74
2024/02/18 03:04:01;;;;;;;2.70;2.30;;;5.20;99.90;;;5.87;100.00;99711.28;4982536;28;20675;-74
2024/02/18 03:06:30;;;;;;;4.90;2.33;;;5.10;99.90;;;5.79;100.00;99703.25;4982959;28;20467;-74
2024/02/18 03:08:59;;;;;;;3.20;2.23;;;5.00;99.90;;;5.69;100.00;99699.69;4984161;28;20486;-74
2024/02/18 03:11:27;;;;;;;4.37;2.30;;;4.90;99.90;;;5.85;100.00;99694.16;4980737;28;20510;-73
2024/02/18 03:13:56;;;;;;;4.30;2.80;;;5.10;99.90;;;5.89;100.00;99700.81;4982187;28;20594;-73
2024/02/18 03:16:24;;;;;;;4.73;2.93;;;5.10;99.90;;;5.93;100.00;99702.22;4982290;28;20464;-74
2024/02/18 03:18:54;;;;;;;2.40;2.20;;;5.20;99.90;;;5.88;100.00;99693.94;4982450;28;20464;-73
2024/02/18 03:21:25;;;;;;;8.03;2.93;;;5.10;99.90;;;5.85;100.00;99691.56;4982971;28;20837;-74
2024/02/18 03:23:54;;;;;;;3.43;2.67;;;5.10;99.90;;;5.72;100.00;99683.06;4983155;28;21275;-74
2024/02/18 03:26:22;;;;;;;3.80;2.77;;;5.00;99.90;;;5.58;100.00;99690.13;4982120;28;21112;-74
2024/02/18 03:28:51;;;;;;;3.13;2.37;;;4.90;99.90;;;5.67;100.00;99686.00;4982729;28;20464;-74
2024/02/18 03:31:19;;;;;;;2.50;2.13;;;5.00;99.90;;;5.75;100.00;99690.59;4982350;28;20483;-74
2024/02/18 03:33:48;;;;;;;4.20;2.40;;;5.00;99.90;;;5.69;100.00;99685.88;4982036;28;20506;-73
2024/02/18 03:36:19;;;;;;;3.57;2.23;;;5.00;99.90;;;5.60;100.00;99689.97;4984533;28;20550;-74
2024/02/18 03:38:48;;;;;;;2.30;2.10;;;4.80;99.90;;;5.56;100.00;99689.38;4982542;28;20491;-74
2024/02/18 03:41:16;;;;;;;2.53;1.93;;;4.90;99.90;;;5.59;100.00;99698.69;4981953;28;20611;-74
2024/02/18 03:43:45;;;;;;;2.57;2.10;;;4.90;99.90;;;5.51;100.00;99701.91;4982808;28;20936;-74
2024/02/18 03:46:14;;;;;;;3.37;2.30;;;4.80;99.90;;;5.47;100.00;99700.47;4983409;28;20467;-74
2024/02/18 03:48:42;;;;;;;3.07;1.93;;;4.70;99.90;;;5.27;100.00;99703.69;4983638;28;20463;-74
2024/02/18 03:51:10;;;;;;;2.70;2.40;;;4.60;99.90;;;5.38;100.00;99701.13;4984472;28;20478;-74
2024/02/18 03:53:40;;;;;;;4.20;3.00;;;4.70;99.90;;;5.32;100.00;99696.41;4983377;28;20526;-73
2024/02/18 03:56:09;;;;;;;3.40;2.70;;;4.60;99.90;;;5.28;100.00;99697.56;4985430;28;20510;-74
2024/02/18 03:58:40;;;;;;;4.70;2.80;;;4.60;99.90;;;5.23;100.00;99697.09;4983869;28;20468;-74
2024/02/18 04:01:09;;;;;;;2.80;2.23;;;4.50;99.90;;;5.20;100.00;99697.31;4982692;28;20463;-74
2024/02/18 04:03:37;;;;;;;4.13;2.70;;;4.40;99.90;;;5.22;100.00;99698.00;4983135;28;20558;-73
2024/02/18 04:06:06;;;;;;;3.23;2.70;;;4.50;99.90;;;5.11;100.00;99705.75;4983709;28;20456;-75
2024/02/18 04:08:35;;;;;;;3.20;2.17;;;4.40;99.90;;;5.21;100.00;99698.94;4982104;28;21018;-74
2024/02/18 04:11:05;;;;;;;3.10;2.13;;;4.50;99.90;;;5.19;100.00;99695.66;4983341;28;20986;-74
2024/02/18 04:13:34;;;;;;;3.57;2.20;;;4.40;99.90;;;5.17;100.00;99689.75;4980817;28;20578;-74
2024/02/18 04:16:03;;;;;;;8.30;2.70;;;4.40;99.90;;;5.19;100.00;99695.66;4982806;28;20476;-73
2024/02/18 04:18:31;;;;;;;4.37;2.87;;;4.40;99.90;;;5.10;100.00;99691.16;4981874;28;20478;-74
2024/02/18 04:21:00;;;;;;;4.60;2.80;;;4.30;99.90;;;5.10;100.00;99692.91;4982138;28;20468;-74
2024/02/18 04:23:28;;;;;;;5.20;3.00;;;4.30;99.90;;;5.09;100.00;99684.31;4981832;28;20478;-73
2024/02/18 04:25:57;;;;;;;3.63;2.40;;;4.40;99.90;;;5.11;100.00;99676.41;4982302;28;20466;-74
2024/02/18 04:28:26;;;;;;;6.30;2.70;;;4.40;99.90;;;5.12;100.00;99676.28;4982332;28;20970;-73
2024/02/18 04:30:55;;;;;;;4.23;2.47;;;4.40;99.90;;;5.10;100.00;99685.97;4982103;28;20553;-74
2024/02/18 04:33:23;;;;;;;4.47;2.70;;;4.40;99.90;;;5.13;100.00;99679.72;4980677;28;20926;-74
2024/02/18 04:35:52;;;;;;;7.00;3.10;;;4.40;99.90;;;5.12;100.00;99673.69;4981661;28;20460;-74
2024/02/18 04:38:20;;;;;;;3.90;2.53;;;4.40;99.90;;;5.08;100.00;99682.63;4981961;28;20463;-73
2024/02/18 04:40:49;;;;;;;3.70;2.60;;;4.30;99.90;;;5.08;100.00;99673.09;4983395;28;20553;-74
2024/02/18 04:43:17;;;;;;;4.67;3.43;;;4.30;99.90;;;5.08;100.00;99670.50;4983894;28;20476;-75
2024/02/18 04:45:47;;;;;;;5.40;2.80;;;4.30;99.90;;;5.04;100.00;99666.47;4983055;28;20517;-75
2024/02/18 04:48:16;;;;;;;5.37;3.47;;;4.30;99.90;;;5.07;100.00;99671.44;4981650;28;20483;-74
2024/02/18 04:50:45;;;;;;;3.90;2.80;;;4.30;99.90;;;5.01;100.00;99663.28;4982533;28;20459;-74
2024/02/18 04:53:14;;;;;;;3.13;2.37;;;4.30;99.90;;;4.96;100.00;99662.81;4982779;28;21031;-74
2024/02/18 04:55:42;;;;;;;4.03;2.90;;;4.20;99.90;;;4.98;100.00;99664.34;4982788;28;20883;-73
2024/02/18 04:58:11;;;;;;;4.53;2.37;;;4.20;99.90;;;4.95;100.00;99668.94;4982636;28;20479;-74
2024/02/18 05:00:40;;;;;;;6.60;2.57;;;4.20;99.90;;;4.90;100.00;99656.28;4981958;28;20490;-75
2024/02/18 05:03:10;;;;;;;2.93;2.07;;;4.20;99.90;;;4.90;100.00;99655.47;4981134;28;20837;-74
2024/02/18 05:05:39;;;;;;;2.53;1.77;;;4.20;99.90;;;4.94;100.00;99643.94;4983778;28;20475;-74
2024/02/18 05:08:07;;;;;;;4.07;2.07;;;4.20;99.90;;;4.84;100.00;99642.94;4982373;28;20492;-73
2024/02/18 05:10:39;;;;;;;3.20;2.20;;;4.10;99.90;;;4.80;100.00;99636.34;4981909;28;20459;-73
2024/02/18 05:13:08;;;;;;;2.67;1.80;;;4.00;99.90;;;4.81;100.00;99638.00;4982814;28;20463;-73
2024/02/18 05:15:36;;;;;;;1.97;1.70;;;4.10;99.90;;;4.87;100.00;99637.53;4982391;28;20456;-75
2024/02/18 05:18:05;;;;;;;2.33;2.13;;;4.10;99.90;;;4.88;100.00;99636.63;4982981;28;20475;-75
2024/02/18 05:20:35;;;;;;;2.97;1.77;;;4.20;99.90;;;4.88;100.00;99631.44;4982718;28;20461;-74
2024/02/18 05:23:04;;;;;;;3.83;1.77;;;4.20;99.90;;;4.90;100.00;99632.13;4982267;28;20464;-74
2024/02/18 05:25:33;;;;;;;2.47;2.03;;;4.20;99.90;;;4.82;100.00;99631.88;4980804;28;21093;-75
2024/02/18 05:28:02;;;;;;;2.53;1.70;;;4.10;99.90;;;4.81;100.00;99625.03;4981590;28;20470;-74
2024/02/18 05:30:30;;;;;;;2.07;1.70;;;4.20;99.90;;;4.84;100.00;99628.25;4981572;28;20843;-74
2024/02/18 05:32:59;;;;;;;2.53;2.10;;;4.20;99.90;;;4.81;100.00;99622.44;4981734;28;20959;-74
2024/02/18 05:35:28;;;;;;;3.20;2.10;;;4.20;99.90;;;4.83;100.00;99621.38;4981995;28;20499;-73
2024/02/18 05:37:58;;;;;;;1.80;1.60;;;4.10;99.90;;;4.73;100.00;99610.03;4982217;28;20475;-74
2024/02/18 05:40:27;;;;;;;2.37;1.83;;;4.00;99.90;;;4.77;100.00;99610.66;4981795;28;21074;-75
2024/02/18 05:42:55;;;;;;;2.60;2.10;;;4.00;99.90;;;4.68;100.00;99606.16;4981333;28;20954;-75
2024/02/18 05:45:30;;;;;;;2.67;2.20;;;4.00;99.90;;;4.51;100.00;99600.41;4981887;28;20720;-74
2024/02/18 05:47:59;;;;;;;3.13;2.00;;;3.80;99.90;;;4.61;100.00;99598.00;4981980;28;20830;-74
2024/02/18 05:50:27;;;;;;;2.90;2.10;;;3.90;99.90;;;4.55;100.00;99594.06;4983169;28;20463;-74
2024/02/18 05:52:57;;;;;;;2.60;2.13;;;3.80;99.90;;;4.57;100.00;99583.63;4980174;28;20553;-74
2024/02/18 05:55:26;;;;;;;2.83;2.03;;;3.90;99.90;;;4.57;100.00;99584.44;4982300;28;20582;-74
2024/02/18 05:57:54;;;;;;;3.43;2.00;;;3.90;99.90;;;4.61;100.00;99586.81;4978393;28;20738;-77
2024/02/18 06:00:23;;;;;;;2.13;2.00;;;3.90;99.90;;;4.54;100.00;99584.66;4974828;28;21652;-74
2024/02/18 06:02:52;;;;;;;2.60;2.10;;;3.80;99.90;;;4.53;100.00;99588.19;4971622;28;20966;-74
2024/02/18 06:05:20;;;;;;;4.70;2.13;;;3.80;99.90;;;4.53;100.00;99590.78;4975139;28;20475;-74
2024/02/18 06:07:49;;;;;;;4.43;2.63;;;3.80;99.90;;;4.61;100.00;99586.81;4973855;28;20816;-74
2024/02/18 06:10:19;;;;;;;7.03;2.23;;;3.80;99.90;;;4.64;100.00;99584.81;4967061;28;20499;-75
2024/02/18 06:12:48;;;;;;;2.10;1.90;;;3.90;99.90;;;4.65;100.00;99585.66;4976388;28;20525;-78
2024/02/18 06:15:16;;;;;;;3.00;2.07;;;3.90;99.90;;;4.65;100.00;99583.06;4974132;28;20500;-76
2024/02/18 06:17:45;;;;;;;3.10;2.60;;;4.10;99.90;;;4.58;100.00;99586.06;4971594;28;21993;-75
2024/02/18 06:20:14;;;;;;;7.33;2.77;;;4.20;99.90;;;4.47;100.00;99588.63;4980461;28;20460;-75
2024/02/18 06:22:46;;;;;;;4.20;2.63;;;4.00;99.90;;;4.49;100.00;99584.16;4980347;28;20460;-75
2024/02/18 06:25:14;;;;;;;4.83;2.47;;;3.90;99.90;;;4.58;100.00;99580.09;4980990;28;20579;-75
2024/02/18 06:27:44;;;;;;;3.07;2.50;;;4.00;99.90;;;4.63;100.00;99575.38;4981170;28;20467;-75
2024/02/18 06:30:14;;;;;;;3.00;2.27;;;4.00;99.90;;;4.62;100.00;99583.28;4980152;28;20582;-75
2024/02/18 06:32:43;;;;;;;3.00;2.20;;;4.00;99.90;;;4.64;100.00;99571.88;4979098;28;20464;-75
2024/02/18 06:35:11;;;;;;;6.30;2.60;;;4.00;99.90;;;4.63;100.00;99561.59;4979865;28;20507;-75
2024/02/18 06:37:41;;;;;;;5.93;2.50;;;3.90;99.90;;;4.62;100.00;99560.78;4979182;28;20517;-74
2024/02/18 06:40:11;;;;;;;4.03;2.40;;;3.90;99.90;;;4.58;100.00;99560.16;4970756;28;20993;-78
2024/02/18 06:42:40;;;;;;;8.30;5.30;;;3.90;99.90;;;4.57;100.00;99547.34;4973331;28;20525;-74
2024/02/18 06:45:10;;;;;;;4.60;3.13;;;3.80;99.90;;;4.50;100.00;99552.16;4978399;28;20476;-74
2024/02/18 06:47:39;;;;;;;5.93;2.97;;;3.80;99.90;;;4.60;100.00;99551.47;4972110;28;20490;-74
2024/02/18 06:50:08;;;;;;;3.87;2.93;;;3.90;99.90;;;4.57;100.00;99548.19;4979553;28;20462;-75
2024/02/18 06:52:37;;;;;;;3.00;2.50;;;3.80;99.90;;;4.58;100.00;99547.22;4980884;28;20464;-74
2024/02/18 06:55:07;;;;;;;3.83;2.37;;;3.90;99.90;;;4.61;100.00;99556.56;4979409;28;20513;-75
2024/02/18 06:57:36;;;;;;;4.00;2.40;;;3.90;99.90;;;4.56;100.00;99546.50;4981045;28;20480;-73
2024/02/18 07:00:08;;;;;;;2.90;2.57;;;4.00;99.90;;;4.56;100.00;99549.09;4979976;28;20475;-75
2024/02/18 07:02:38;;;;;;;4.17;2.10;;;3.90;99.90;;;4.53;100.00;99545.91;4981107;28;20475;-74
2024/02/18 07:05:08;;;;;;;3.53;2.60;;;3.90;99.90;;;4.51;100.00;99537.44;4980363;28;21203;-75
2024/02/18 07:07:37;;;;;;;3.03;2.30;;;3.90;99.90;;;4.55;100.00;99544.03;4980437;28;20468;-75
2024/02/18 07:10:07;;;;;;;2.83;2.50;;;3.90;99.90;;;4.54;100.00;99537.22;4979659;28;20464;-74
2024/02/18 07:12:36;;;;;;;3.63;1.97;;;4.00;99.90;;;4.57;100.00;99548.19;4979719;28;20498;-75
2024/02/18 07:15:06;;;;;;;2.23;2.03;;;3.90;99.90;;;4.55;100.00;99544.84;4978068;28;20495;-74
2024/02/18 07:17:34;;;;;;;3.43;2.43;;;3.80;99.90;;;4.59;100.00;99535.09;4980037;28;20468;-75
2024/02/18 07:20:05;;;;;;;2.63;2.40;;;3.90;99.90;;;4.57;100.00;99530.03;4974799;28;20472;-75
2024/02/18 07:22:34;;;;;;;2.70;2.27;;;3.90;99.90;;;4.58;100.00;99538.66;4975644;28;20456;-75
2024/02/18 07:25:02;;;;;;;4.20;2.83;;;3.90;99.90;;;4.56;100.00;99543.94;4972207;28;20464;-75
2024/02/18 07:27:31;;;;;;;4.50;2.40;;;3.80;99.90;;;4.61;100.00;99533.25;4973795;28;20487;-75
2024/02/18 07:29:59;;;;;;;4.90;2.20;;;4.00;99.90;;;4.64;100.00;99535.59;4970702;28;20484;-75
2024/02/18 07:32:28;;;;;;;5.83;2.83;;;4.00;99.90;;;4.64;100.00;99534.78;4972334;28;20476;-75
2024/02/18 07:34:56;;;;;;;3.13;2.30;;;4.00;99.90;;;4.64;100.00;99539.94;4971255;28;20938;-75
2024/02/18 07:37:27;;;;;;;8.77;2.43;;;4.00;99.90;;;4.66;100.00;99540.66;4976762;28;20551;-75
2024/02/18 07:39:55;;;;;;;4.77;2.03;;;4.00;99.90;;;4.71;100.00;99538.56;4979278;28;20855;-75
2024/02/18 07:42:25;;;;;;;3.30;2.60;;;4.00;99.90;;;4.66;100.00;99535.47;4980655;28;20467;-75
2024/02/18 07:44:54;;;;;;;2.90;2.13;;;4.00;99.90;;;4.71;100.00;99538.56;4982545;28;20555;-75
2024/02/18 07:47:22;;;;;;;8.63;2.10;;;4.00;99.90;;;4.76;100.00;99541.63;4984043;28;20456;-75
2024/02/18 07:49:51;;;;;;;1.97;1.83;;;4.00;99.90;;;4.78;100.00;99540.59;4985043;28;20456;-75
2024/02/18 07:52:20;;;;;;;3.63;2.00;;;4.10;99.90;;;4.81;100.00;99523.97;4981687;28;21135;-75
2024/02/18 07:54:50;;;;;;;2.30;1.67;;;4.20;99.90;;;4.85;100.00;99520.22;4982654;28;20524;-75
2024/02/18 07:57:18;;;;;;;3.13;1.93;;;4.20;99.90;;;4.88;100.00;99526.00;4982806;28;20492;-75
2024/02/18 07:59:47;;;;;;;2.10;1.83;;;4.30;99.90;;;4.90;100.00;99518.09;4984093;28;20486;-75
2024/02/18 08:02:15;;;;;;;4.70;2.10;;;4.30;99.90;;;4.93;100.00;99513.50;4982540;28;20463;-75
2024/02/18 08:04:44;;;;;;;3.43;2.03;;;4.30;99.90;;;4.92;100.00;99516.25;4982800;28;20478;-75
2024/02/18 08:07:13;;;;;;;1.93;1.67;;;4.30;99.90;;;4.93;100.00;99512.69;4985378;28;20962;-74
2024/02/18 08:09:41;;;;;;;2.90;2.03;;;4.30;99.90;;;4.97;100.00;99511.53;4977472;28;20456;-75
2024/02/18 08:12:11;;;;;;;2.40;2.20;;;4.30;99.90;;;5.03;100.00;99508.50;4975477;28;20754;-79
2024/02/18 08:14:44;;;;;;;3.07;2.50;;;4.40;99.90;;;5.06;100.00;99505.66;4974819;28;20468;-74
2024/02/18 08:17:12;;;;;;;3.37;2.10;;;4.30;99.90;;;5.11;100.00;99510.47;4982861;28;20681;-75
2024/02/18 08:19:41;;;;;;;5.60;2.27;;;4.50;99.90;;;5.18;100.00;99512.50;4981455;28;20543;-74
2024/02/18 08:22:15;;;;;;;2.53;2.00;;;4.50;99.90;;;5.18;100.00;99512.50;4983588;28;21079;-74
2024/02/18 08:24:49;;;;;;;5.37;2.33;;;4.60;99.90;;;5.22;100.00;99507.91;4983238;28;20495;-75
2024/02/18 08:27:19;;;;;;;2.33;2.03;;;4.60;99.90;;;5.28;100.00;99505.66;4982544;28;20467;-74
2024/02/18 08:29:48;;;;;;;3.10;2.40;;;4.60;99.90;;;5.35;100.00;99501.66;4982255;28;20483;-74
2024/02/18 08:32:17;;;;;;;7.77;2.00;;;4.60;99.90;;;5.35;100.00;99500.81;4981543;28;20538;-74
2024/02/18 08:34:46;;;;;;;3.00;2.43;;;4.60;99.90;;;5.37;100.00;99502.38;4983314;28;20483;-74
2024/02/18 08:37:14;;;;;;;2.53;1.93;;;4.60;99.90;;;5.40;100.00;99502.13;4982468;28;20482;-74
2024/02/18 08:39:43;;;;;;;2.97;1.97;;;4.70;99.90;;;5.49;100.00;99491.03;4983843;28;20472;-74
2024/02/18 08:42:11;;;;;;;2.87;1.70;;;4.80;99.90;;;5.50;100.00;99487.50;4982559;28;20480;-75
2024/02/18 08:44:41;;;;;;;2.13;1.80;;;4.80;99.90;;;5.48;100.00;99478.22;4984117;28;21086;-75
2024/02/18 08:47:11;;;;;;;3.10;2.10;;;4.80;99.90;;;5.49;100.00;99470.28;4976346;28;20460;-75
2024/02/18 08:49:42;;;;;;;3.23;2.27;;;4.90;99.90;;;5.53;100.00;99465.69;4973780;28;20762;-74
2024/02/18 08:52:11;;;;;;;5.30;1.80;;;4.90;99.90;;;5.54;100.00;99459.56;4973965;28;20836;-75
2024/02/18 08:54:43;;;;;;;2.37;2.00;;;4.80;99.90;;;5.56;100.00;99463.69;4980358;28;20467;-75
2024/02/18 08:57:12;;;;;;;4.87;2.70;;;4.90;99.90;;;5.63;100.00;99461.41;4983366;28;20504;-75
2024/02/18 08:59:44;;;;;;;2.47;2.10;;;4.90;99.90;;;5.68;100.00;99463.66;4980637;28;20464;-75
2024/02/18 09:02:13;;;;;;;4.07;2.30;;;4.90;99.90;;;5.76;100.00;99462.09;4980329;28;20477;-75
2024/02/18 09:04:42;;;;;;;4.40;2.30;;;5.10;99.90;;;5.85;100.00;99457.97;4981341;28;20479;-75
2024/02/18 09:07:12;;;;;;;7.00;2.17;;;5.20;99.90;;;5.84;100.00;99456.31;4981556;28;20561;-75
2024/02/18 09:09:41;;;;;;;5.00;2.50;;;5.20;99.90;;;5.88;100.00;99460.34;4981590;28;20464;-74
2024/02/18 09:12:10;;;;;;;6.20;2.60;;;5.20;99.90;;;5.96;100.00;99456.19;4980878;28;20551;-74
2024/02/18 09:14:39;;;;;;;3.73;2.30;;;5.30;99.90;;;6.01;100.00;99453.22;4980425;28;20472;-74
2024/02/18 09:17:09;;;;;;;3.20;2.10;;;5.30;99.90;;;6.07;100.00;99455.34;4980021;28;20504;-75
2024/02/18 09:19:37;;;;;;;6.00;2.73;;;5.50;99.90;;;6.12;100.00;99447.97;4981718;28;20456;-75
2024/02/18 09:22:06;;;;;;;4.90;2.47;;;5.50;99.90;;;6.16;100.00;99439.00;4980643;28;20614;-75
2024/02/18 09:24:35;;;;;;;5.07;2.67;;;5.70;99.90;;;6.20;100.00;99435.22;4980477;28;20489;-75
2024/02/18 09:27:03;;;;;;;3.30;2.50;;;5.70;99.90;;;6.26;100.00;99437.28;4975351;28;20467;-75
2024/02/18 09:29:32;;;;;;;9.70;3.20;;;5.70;99.90;;;6.32;100.00;99439.38;4973146;28;20483;-75
2024/02/18 09:32:01;;;;;;;6.57;3.40;;;5.70;99.90;;;6.38;100.00;99427.69;4975169;28;20982;-75
2024/02/18 09:34:31;;;;;;;4.57;3.30;;;5.80;99.90;;;6.46;100.00;99431.28;4979998;28;20471;-75
2024/02/18 09:37:00;;;;;;;6.47;2.67;;;5.80;99.90;;;6.52;100.00;99420.41;4980754;28;20499;-75
2024/02/18 09:39:29;;;;;;;6.30;3.30;;;6.00;99.90;;;6.59;100.00;99416.31;4981804;28;20490;-75
2024/02/18 09:41:59;;;;;;;4.80;2.60;;;6.10;99.90;;;6.68;100.00;99412.13;4979619;28;20476;-75
2024/02/18 09:44:28;;;;;;;9.40;4.53;;;6.10;99.90;;;6.74;100.00;99401.22;4980771;28;20467;-75
2024/02/18 09:47:01;;;;;;;6.20;3.10;;;6.20;99.90;;;6.80;100.00;99397.28;4979988;28;20930;-75
2024/02/18 09:49:34;;;;;;;6.43;2.30;;;6.20;99.90;;;6.87;100.00;99396.63;4980210;28;20456;-75
2024/02/18 09:52:06;;;;;;;5.23;3.07;;;6.30;99.90;;;6.96;100.00;99398.47;4978847;28;20474;-74
2024/02/18 09:54:35;;;;;;;5.60;3.07;;;6.40;99.90;;;7.02;100.00;99394.50;4980445;28;20520;-75
2024/02/18 09:57:06;;;;;;;6.13;2.90;;;6.50;99.90;;;7.07;100.00;99397.53;4979031;28;20495;-75
2024/02/18 09:59:35;;;;;;;7.90;3.73;;;6.60;99.90;;;7.16;100.00;99394.13;4980845;28;20459;-74
2024/02/18 10:02:06;;;;;;;3.43;2.67;;;6.70;99.90;;;7.22;100.00;99385.81;4977051;28;20518;-75
2024/02/18 10:04:36;;;;;;;7.07;3.70;;;6.60;99.90;;;7.31;100.00;99379.81;4981517;28;20704;-75
2024/02/18 10:07:08;;;;;;;9.23;3.60;;;6.70;99.90;;;7.36;100.00;99369.00;4979864;28;20460;-74
2024/02/18 10:09:39;;;;;;;8.73;3.93;;;6.80;99.90;;;7.43;100.00;99368.31;4980077;28;20464;-75
2024/02/18 10:12:09;;;;;;;7.17;3.67;;;6.90;99.90;;;7.50;100.00;99361.63;4979855;28;20970;-75
2024/02/18 10:14:37;;;;;;;8.80;2.97;;;7.00;99.90;;;7.55;100.00;99359.47;4978252;28;20464;-75
2024/02/18 10:17:06;;;;;;;4.63;3.17;;;7.00;99.90;;;7.63;100.00;99355.34;4979691;28;20908;-76
2024/02/18 10:19:36;;;;;;;7.60;4.00;;;7.10;99.90;;;7.69;100.00;99349.59;4978994;28;21106;-75
2024/02/18 10:22:05;;;;;;;9.17;3.90;;;7.20;99.90;;;7.75;100.00;99354.25;4980396;28;20463;-75
2024/02/18 10:24:34;;;;;;;5.00;2.90;;;7.20;99.90;;;7.80;100.00;99352.91;4974718;28;20964;-75
2024/02/18 10:27:05;;;;;;;6.67;3.30;;;7.10;99.90;;;7.87;100.00;99343.59;4972676;28;21017;-75
2024/02/18 10:29:36;;;;;;;11.10;3.43;;;7.30;99.90;;;7.93;100.00;99339.59;4974956;28;20503;-75
2024/02/18 10:32:07;;;;;;;6.57;3.10;;;7.40;99.90;;;7.99;100.00;99326.00;4970040;28;20646;-75
2024/02/18 10:34:37;;;;;;;14.50;8.07;;;7.40;99.90;;;8.01;100.00;99322.31;4971621;28;20574;-75